Time;durP1;ratioP1;P1;durP2;ratioP2;P2;SDS_P1;SDS_P2;PMS_P1;PMS_P2;Temp;Humidity;BMP_temperature;BMP_pressure;BME280_temperature;BME280_humidity;BME280_pressure;Samples;Min_cycle;Max_cycle;Signal;HPM_P1;HPM_P2
2023/01/30 00:01:53;;;;;;;0.40;0.40;;;5.70;52.70;;;;;;5057249;28;20497;-83
2023/01/30 00:04:18;;;;;;;0.30;0.30;;;5.70;53.30;;;;;;5057313;28;20025;-87
2023/01/30 00:06:44;;;;;;;0.40;0.40;;;5.70;53.30;;;;;;5073106;28;20416;-84
2023/01/30 00:09:18;;;;;;;0.40;0.40;;;5.80;52.90;;;;;;5094043;28;20165;-87
2023/01/30 00:11:44;;;;;;;0.40;0.40;;;5.70;53.00;;;;;;5094321;28;20068;-85
2023/01/30 00:14:09;;;;;;;0.32;0.32;;;5.60;53.20;;;;;;5087539;28;20029;-84
2023/01/30 00:16:56;;;;;;;0.40;0.40;;;5.50;53.20;;;;;;5057774;28;20024;-86
2023/01/30 00:19:22;;;;;;;0.40;0.40;;;5.60;53.60;;;;;;4722368;28;9999873;-85
2023/01/30 00:21:51;;;;;;;0.40;0.40;;;5.70;53.10;;;;;;5099786;28;20054;-85
2023/01/30 00:24:19;;;;;;;0.30;0.30;;;5.60;53.50;;;;;;5090772;28;20048;-85
2023/01/30 00:26:45;;;;;;;0.40;0.40;;;5.50;53.30;;;;;;5077003;28;20428;-85
2023/01/30 00:29:11;;;;;;;0.30;0.30;;;5.30;53.60;;;;;;5076856;28;20462;-83
2023/01/30 00:31:36;;;;;;;0.40;0.40;;;5.20;54.30;;;;;;5076779;28;20024;-83
2023/01/30 00:34:02;;;;;;;0.40;0.40;;;5.30;53.90;;;;;;5077715;28;20074;-87
2023/01/30 00:36:27;;;;;;;0.40;0.40;;;5.60;54.00;;;;;;5096817;28;20107;-86
2023/01/30 00:38:56;;;;;;;0.40;0.40;;;5.90;53.20;;;;;;5096956;28;20055;-84
2023/01/30 00:41:22;;;;;;;0.30;0.30;;;5.90;52.70;;;;;;5097027;28;20039;-86
2023/01/30 00:49:17;;;;;;;0.40;0.40;;;5.80;52.70;;;;;;5115531;28;20069;-87
2023/01/30 00:51:43;;;;;;;0.40;0.40;;;5.60;53.20;;;;;;5096238;28;20110;-84
2023/01/30 00:54:08;;;;;;;0.40;0.40;;;5.50;53.00;;;;;;5096417;28;20068;-84
2023/01/30 00:56:34;;;;;;;0.40;0.40;;;5.50;53.60;;;;;;5096977;28;20027;-84
2023/01/30 00:59:00;;;;;;;0.40;0.40;;;5.40;53.80;;;;;;5096591;28;20043;-89
2023/01/30 01:01:26;;;;;;;0.40;0.40;;;5.60;53.90;;;;;;5096596;28;20076;-86
2023/01/30 01:03:51;;;;;;;0.40;0.40;;;5.80;53.40;;;;;;5096514;28;20031;-84
2023/01/30 01:06:17;;;;;;;0.38;0.38;;;5.90;53.00;;;;;;5086279;28;20059;-84
2023/01/30 01:08:43;;;;;;;0.32;0.32;;;6.00;52.90;;;;;;5076618;28;20028;-85
2023/01/30 01:11:09;;;;;;;0.40;0.40;;;5.90;52.80;;;;;;5076214;28;20023;-89
2023/01/30 01:13:34;;;;;;;0.40;0.40;;;5.90;53.00;;;;;;5075851;28;20024;-86
2023/01/30 01:16:00;;;;;;;0.40;0.40;;;5.80;53.30;;;;;;5076509;28;20476;-88
2023/01/30 01:18:26;;;;;;;0.30;0.30;;;5.90;53.00;;;;;;5076044;28;20024;-86
2023/01/30 01:20:52;;;;;;;0.40;0.40;;;5.90;52.70;;;;;;5075608;28;20036;-88
2023/01/30 01:23:17;;;;;;;0.30;0.30;;;5.70;53.40;;;;;;5075831;28;20448;-85
2023/01/30 01:25:43;;;;;;;0.30;0.30;;;5.60;53.00;;;;;;5076235;28;20056;-83
2023/01/30 01:28:09;;;;;;;0.30;0.30;;;5.60;53.40;;;;;;5076514;28;20040;-82
2023/01/30 01:30:34;;;;;;;0.40;0.40;;;5.70;53.60;;;;;;5096208;28;20467;-83
2023/01/30 01:33:00;;;;;;;0.40;0.40;;;5.70;53.30;;;;;;5096248;28;20024;-83
2023/01/30 01:35:26;;;;;;;0.40;0.40;;;5.60;53.00;;;;;;5096033;28;20024;-86
2023/01/30 01:37:55;;;;;;;0.40;0.40;;;5.50;53.50;;;;;;5096632;28;20458;-89
2023/01/30 01:43:18;;;;;;;0.40;0.40;;;5.40;54.20;;;;;;5114311;28;20443;-84
2023/01/30 01:45:45;;;;;;;0.50;0.50;;;5.30;54.00;;;;;;5095949;28;20030;-85
2023/01/30 01:48:25;;;;;;;0.40;0.40;;;5.50;54.30;;;;;;5114147;28;20080;-88
2023/01/30 01:50:56;;;;;;;0.40;0.40;;;5.80;53.50;;;;;;5089657;28;20012;-89
2023/01/30 01:53:24;;;;;;;;;;;6.10;52.70;;;;;;5076818;28;20035;-81
2023/01/30 01:55:57;;;;;;;0.30;0.30;;;6.20;52.10;;;;;;5075533;28;19999;-83
2023/01/30 01:58:35;;;;;;;0.40;0.40;;;6.10;52.20;;;;;;5075733;28;20371;-88
2023/01/30 02:01:01;;;;;;;0.40;0.40;;;6.10;52.20;;;;;;5075564;28;20031;-83
2023/01/30 02:03:31;;;;;;;0.40;0.40;;;5.80;53.20;;;;;;5076390;28;20016;-82
2023/01/30 02:06:01;;;;;;;0.40;0.40;;;5.70;53.20;;;;;;5079455;28;20465;-84
2023/01/30 02:08:31;;;;;;;0.40;0.40;;;5.80;53.00;;;;;;5079149;28;20449;-89
2023/01/30 02:11:05;;;;;;;0.40;0.40;;;5.80;52.90;;;;;;5093714;28;20024;-83
2023/01/30 02:13:32;;;;;;;0.40;0.40;;;5.60;53.30;;;;;;5095830;28;20024;-82
2023/01/30 02:16:24;;;;;;;0.40;0.40;;;5.70;53.20;;;;;;5099642;28;20389;-86
2023/01/30 02:18:50;;;;;;;0.40;0.40;;;5.50;52.90;;;;;;5099669;28;20023;-82
2023/01/30 02:21:44;;;;;;;0.40;0.40;;;5.30;53.70;;;;;;5098998;28;20500;-83
2023/01/30 02:24:46;;;;;;;0.40;0.40;;;5.50;53.40;;;;;;5085645;28;20123;-82
2023/01/30 02:27:21;;;;;;;0.40;0.40;;;5.20;54.30;;;;;;5079159;28;20082;-86
2023/01/30 02:30:05;;;;;;;0.43;0.43;;;5.40;53.70;;;;;;5079120;28;20035;-86
2023/01/30 02:32:56;;;;;;;0.50;0.50;;;5.60;53.40;;;;;;5078950;28;20413;-83
2023/01/30 02:35:54;;;;;;;0.40;0.40;;;5.60;53.60;;;;;;5078902;28;20519;-83
2023/01/30 02:38:22;;;;;;;0.40;0.40;;;5.70;53.30;;;;;;5079016;28;20025;-89
2023/01/30 02:41:12;;;;;;;0.40;0.40;;;5.70;53.00;;;;;;5078874;28;20107;-87
2023/01/30 02:44:04;;;;;;;0.40;0.40;;;5.60;53.20;;;;;;5079267;28;20047;-89
2023/01/30 02:46:51;;;;;;;0.40;0.40;;;5.60;53.30;;;;;;5097448;28;20039;-90
2023/01/30 02:49:38;;;;;;;0.40;0.40;;;5.70;53.00;;;;;;5099012;28;20027;-82
2023/01/30 02:52:06;;;;;;;0.40;0.40;;;5.90;52.70;;;;;;5099110;28;20466;-86
2023/01/30 02:54:32;;;;;;;0.40;0.40;;;5.90;52.90;;;;;;5098675;28;20023;-84
2023/01/30 02:56:59;;;;;;;0.40;0.40;;;5.90;52.60;;;;;;5097982;28;20061;-89
2023/01/30 02:59:33;;;;;;;0.40;0.40;;;5.60;53.00;;;;;;5098658;28;20492;-81
2023/01/30 03:02:24;;;;;;;0.30;0.30;;;5.50;53.20;;;;;;5098627;28;20036;-88
2023/01/30 03:05:17;;;;;;;0.50;0.50;;;5.60;52.70;;;;;;5098629;28;20031;-83
2023/01/30 03:08:30;;;;;;;0.40;0.40;;;5.80;52.80;;;;;;5098647;28;20020;-83
2023/01/30 03:11:06;;;;;;;0.40;0.40;;;5.70;53.20;;;;;;5071953;28;20032;-82
2023/01/30 03:13:47;;;;;;;0.40;0.40;;;5.80;52.40;;;;;;5078762;28;20468;-85
2023/01/30 03:16:36;;;;;;;0.40;0.40;;;5.70;52.80;;;;;;5077673;28;20528;-89
2023/01/30 03:19:05;;;;;;;0.40;0.40;;;5.90;52.50;;;;;;5077841;28;20027;-89
2023/01/30 03:21:31;;;;;;;0.40;0.40;;;6.00;52.50;;;;;;5078195;28;20142;-85
2023/01/30 03:23:57;;;;;;;0.40;0.40;;;6.00;52.40;;;;;;5078135;28;20109;-85
2023/01/30 03:26:29;;;;;;;0.35;0.35;;;5.90;52.50;;;;;;5078283;28;20035;-84
2023/01/30 03:28:55;;;;;;;0.40;0.40;;;5.50;52.90;;;;;;5085640;28;20059;-82
2023/01/30 03:31:21;;;;;;;0.40;0.40;;;5.50;53.10;;;;;;5098141;28;20020;-85
2023/01/30 03:33:47;;;;;;;0.40;0.40;;;5.70;52.90;;;;;;5098246;28;20035;-83
2023/01/30 03:36:13;;;;;;;0.38;0.38;;;5.70;53.10;;;;;;5098024;28;20084;-82
2023/01/30 03:38:46;;;;;;;0.30;0.30;;;5.90;52.40;;;;;;5098267;28;20028;-90
2023/01/30 03:41:12;;;;;;;0.40;0.40;;;5.80;52.40;;;;;;5087148;28;20021;-90
2023/01/30 03:43:37;;;;;;;0.40;0.40;;;5.70;52.90;;;;;;5077577;28;20037;-85
2023/01/30 03:46:03;;;;;;;0.40;0.40;;;5.80;52.60;;;;;;5077834;28;20542;-82
2023/01/30 03:48:29;;;;;;;0.38;0.38;;;5.90;52.60;;;;;;5077457;28;20043;-82
2023/01/30 03:50:54;;;;;;;0.40;0.40;;;5.80;52.90;;;;;;5077243;28;20417;-83
2023/01/30 03:53:20;;;;;;;0.32;0.32;;;5.70;52.70;;;;;;5085999;28;20390;-82
2023/01/30 03:55:46;;;;;;;0.40;0.40;;;5.70;52.90;;;;;;5097849;28;20028;-82
2023/01/30 03:58:11;;;;;;;0.30;0.30;;;5.70;52.90;;;;;;5097504;28;20059;-83
2023/01/30 04:00:37;;;;;;;0.43;0.43;;;5.80;52.70;;;;;;5089993;28;20027;-86
2023/01/30 04:03:03;;;;;;;0.40;0.40;;;5.50;53.00;;;;;;5077161;28;20032;-82
2023/01/30 04:05:28;;;;;;;0.40;0.40;;;5.30;53.60;;;;;;5081585;28;20035;-81
2023/01/30 04:07:57;;;;;;;0.40;0.40;;;5.10;54.00;;;;;;5096769;28;20032;-88
2023/01/30 04:10:24;;;;;;;0.50;0.50;;;4.90;54.40;;;;;;5115159;28;20024;-84
2023/01/30 04:12:49;;;;;;;0.40;0.40;;;4.90;54.60;;;;;;5097638;28;20084;-81
2023/01/30 04:15:15;;;;;;;0.40;0.40;;;4.50;54.80;;;;;;5116111;28;20032;-81
2023/01/30 04:17:42;;;;;;;0.32;0.32;;;4.10;55.90;;;;;;5076980;28;20024;-89
2023/01/30 04:20:09;;;;;;;0.40;0.40;;;4.20;56.40;;;;;;5077476;28;20020;-80
2023/01/30 04:22:34;;;;;;;0.40;0.40;;;4.10;55.90;;;;;;5115066;28;20096;-82
2023/01/30 04:25:00;;;;;;;0.40;0.40;;;4.20;56.10;;;;;;5107115;28;20028;-86
2023/01/30 04:27:26;;;;;;;0.40;0.40;;;3.90;56.80;;;;;;5076197;28;20038;-83
2023/01/30 04:29:52;;;;;;;0.40;0.40;;;4.10;56.60;;;;;;5095160;28;20024;-82
2023/01/30 04:32:18;;;;;;;0.40;0.40;;;4.40;55.80;;;;;;5076276;28;20160;-86
2023/01/30 04:34:44;;;;;;;0.40;0.40;;;4.60;54.90;;;;;;5076647;28;20056;-90
2023/01/30 04:37:10;;;;;;;0.40;0.40;;;4.90;54.70;;;;;;5076330;28;20028;-90
2023/01/30 04:39:36;;;;;;;0.30;0.30;;;5.20;54.20;;;;;;5076278;28;20024;-90
2023/01/30 04:42:02;;;;;;;0.40;0.40;;;5.30;53.40;;;;;;5099402;28;20136;-81
2023/01/30 04:44:28;;;;;;;0.40;0.40;;;5.50;53.30;;;;;;5087170;28;20032;-91
2023/01/30 04:46:53;;;;;;;0.30;0.30;;;5.70;52.90;;;;;;5076613;28;20084;-89
2023/01/30 04:49:20;;;;;;;0.32;0.32;;;5.70;52.30;;;;;;5094399;28;20047;-90
2023/01/30 04:51:46;;;;;;;0.43;0.43;;;5.60;52.40;;;;;;5079311;28;20020;-90
2023/01/30 04:54:12;;;;;;;0.40;0.40;;;5.50;52.90;;;;;;5097252;28;20036;-90
2023/01/30 04:56:38;;;;;;;0.40;0.40;;;5.60;52.90;;;;;;5096711;28;20363;-90
2023/01/30 04:59:03;;;;;;;0.40;0.40;;;5.80;52.70;;;;;;5096564;28;20518;-90
2023/01/30 05:01:32;;;;;;;0.40;0.40;;;6.00;52.10;;;;;;5096566;28;20523;-82
2023/01/30 05:03:57;;;;;;;0.40;0.40;;;6.10;51.90;;;;;;5096549;28;20077;-91
2023/01/30 05:06:23;;;;;;;0.40;0.40;;;6.00;52.00;;;;;;5114700;28;20024;-88
2023/01/30 05:08:50;;;;;;;0.40;0.40;;;5.80;52.00;;;;;;5100786;28;20028;-87
2023/01/30 05:11:16;;;;;;;0.40;0.40;;;5.70;53.20;;;;;;5075961;28;20024;-82
2023/01/30 05:13:45;;;;;;;0.30;0.30;;;5.90;52.60;;;;;;5093892;28;20123;-91
2023/01/30 05:17:01;;;;;;;0.38;0.38;;;6.10;52.30;;;;;;5092925;28;20036;-81
2023/01/30 05:19:29;;;;;;;0.40;0.40;;;6.20;51.90;;;;;;4992560;28;20042;-86
2023/01/30 05:21:55;;;;;;;0.40;0.40;;;5.90;52.30;;;;;;4992282;28;20050;-85
2023/01/30 05:24:26;;;;;;;0.40;0.40;;;5.40;53.30;;;;;;4992291;28;20046;-83
2023/01/30 05:26:52;;;;;;;0.32;0.32;;;5.00;54.70;;;;;;4989312;28;20122;-81
2023/01/30 05:29:18;;;;;;;0.30;0.30;;;4.90;54.50;;;;;;5011780;28;20038;-83
2023/01/30 05:31:43;;;;;;;0.30;0.30;;;4.90;54.90;;;;;;4995064;28;20026;-89
2023/01/30 05:34:11;;;;;;;0.40;0.40;;;5.00;54.70;;;;;;4995112;28;20034;-86
2023/01/30 05:36:37;;;;;;;0.40;0.40;;;4.70;54.90;;;;;;4995563;28;20064;-87
2023/01/30 05:39:03;;;;;;;0.30;0.30;;;4.70;55.50;;;;;;5014786;28;20401;-87
2023/01/30 05:41:29;;;;;;;0.30;0.30;;;5.00;54.90;;;;;;4985905;28;20081;-90
2023/01/30 05:43:55;;;;;;;0.40;0.40;;;5.00;54.70;;;;;;4996380;28;20509;-79
2023/01/30 05:46:20;;;;;;;0.40;0.40;;;5.00;55.00;;;;;;4988167;28;20025;-82
2023/01/30 05:48:46;;;;;;;0.50;0.50;;;5.20;54.70;;;;;;4998982;28;20145;-80
2023/01/30 05:51:20;;;;;;;0.50;0.50;;;5.30;54.40;;;;;;4998383;28;20779;-83
2023/01/30 05:53:46;;;;;;;0.50;0.50;;;5.00;54.80;;;;;;5015643;28;20037;-82
2023/01/30 05:56:12;;;;;;;0.40;0.40;;;5.10;54.70;;;;;;5082263;28;20028;-89
2023/01/30 05:58:40;;;;;;;0.40;0.40;;;5.20;54.80;;;;;;5087519;28;20051;-89
2023/01/30 06:01:10;;;;;;;0.40;0.40;;;5.30;55.20;;;;;;5095716;28;20024;-78
2023/01/30 06:03:36;;;;;;;0.50;0.50;;;5.20;54.90;;;;;;5097365;28;20020;-79
2023/01/30 06:06:04;;;;;;;0.40;0.40;;;5.10;55.80;;;;;;5102825;28;20019;-82
2023/01/30 06:08:30;;;;;;;0.40;0.40;;;5.00;55.20;;;;;;5094679;28;20036;-81
2023/01/30 06:11:03;;;;;;;0.40;0.40;;;4.90;55.40;;;;;;5097638;28;20032;-81
2023/01/30 06:13:28;;;;;;;0.40;0.40;;;5.10;55.90;;;;;;5079587;28;20520;-81
2023/01/30 06:15:54;;;;;;;0.47;0.47;;;5.20;55.10;;;;;;5079064;28;20032;-88
2023/01/30 06:18:20;;;;;;;0.40;0.40;;;5.40;54.80;;;;;;5079405;28;20024;-82
2023/01/30 06:20:47;;;;;;;0.40;0.40;;;5.60;55.00;;;;;;5097457;28;20020;-88
2023/01/30 06:23:13;;;;;;;0.30;0.30;;;5.70;54.20;;;;;;5081757;28;20517;-81
2023/01/30 06:25:46;;;;;;;0.40;0.40;;;5.70;54.10;;;;;;5099041;28;20063;-80
2023/01/30 06:28:12;;;;;;;0.40;0.40;;;5.60;54.60;;;;;;5117697;28;20214;-85
2023/01/30 06:30:38;;;;;;;0.40;0.40;;;5.70;54.90;;;;;;5117696;28;20112;-87
2023/01/30 06:33:04;;;;;;;0.40;0.40;;;5.90;54.90;;;;;;5117490;28;20478;-85
2023/01/30 06:35:30;;;;;;;0.40;0.40;;;6.30;54.20;;;;;;5096378;28;20031;-88
2023/01/30 06:37:56;;;;;;;0.38;0.38;;;6.30;53.40;;;;;;5086593;28;20028;-86
2023/01/30 06:40:21;;;;;;;0.40;0.40;;;6.40;53.60;;;;;;5096481;28;20032;-86
2023/01/30 06:42:48;;;;;;;0.30;0.30;;;6.60;53.40;;;;;;5096408;28;20036;-89
2023/01/30 06:45:16;;;;;;;0.40;0.40;;;6.70;53.30;;;;;;5078694;28;20024;-81
2023/01/30 06:47:52;;;;;;;0.40;0.40;;;6.70;52.90;;;;;;5096584;28;20111;-88
2023/01/30 06:50:20;;;;;;;0.30;0.30;;;6.60;53.10;;;;;;5079100;28;20554;-90
2023/01/30 06:52:55;;;;;;;0.40;0.40;;;6.80;53.20;;;;;;5115467;28;20122;-82
2023/01/30 06:55:23;;;;;;;0.47;0.47;;;7.00;52.70;;;;;;5110475;28;20027;-80
2023/01/30 06:57:49;;;;;;;0.40;0.40;;;7.00;52.80;;;;;;5120096;27;20474;-91
2023/01/30 07:00:18;;;;;;;0.40;0.40;;;7.10;52.80;;;;;;5137083;27;20027;-87
2023/01/30 07:02:44;;;;;;;0.40;0.40;;;7.20;52.60;;;;;;5118717;27;20031;-88
2023/01/30 07:05:10;;;;;;;0.40;0.40;;;7.30;52.40;;;;;;5118575;27;20023;-83
2023/01/30 07:07:37;;;;;;;0.50;0.50;;;7.20;52.10;;;;;;4403010;28;10000633;-89
2023/01/30 07:10:05;;;;;;;0.40;0.40;;;7.00;52.90;;;;;;5078930;28;20032;-83
2023/01/30 07:12:31;;;;;;;0.30;0.30;;;7.20;52.60;;;;;;5096929;28;20019;-91
2023/01/30 07:14:57;;;;;;;0.40;0.40;;;7.20;52.40;;;;;;5098418;28;20028;-88
2023/01/30 07:17:23;;;;;;;0.40;0.40;;;7.30;52.20;;;;;;5097629;28;20020;-81
2023/01/30 07:19:49;;;;;;;0.30;0.30;;;7.40;52.40;;;;;;5098112;28;20019;-88
2023/01/30 07:22:15;;;;;;;0.30;0.30;;;7.40;52.10;;;;;;5097522;28;20061;-81
2023/01/30 07:24:41;;;;;;;0.40;0.40;;;7.40;52.40;;;;;;5097283;28;20096;-86
2023/01/30 07:27:09;;;;;;;0.40;0.40;;;7.30;52.20;;;;;;5115462;28;20020;-88
2023/01/30 07:29:36;;;;;;;0.40;0.40;;;7.30;52.50;;;;;;5115828;28;20023;-87
2023/01/30 07:32:02;;;;;;;0.40;0.40;;;6.80;52.90;;;;;;5097501;28;20023;-81
2023/01/30 07:34:28;;;;;;;0.40;0.40;;;6.70;53.80;;;;;;5097440;28;20024;-82
2023/01/30 07:36:53;;;;;;;0.30;0.30;;;6.60;53.70;;;;;;5097449;28;20488;-83
2023/01/30 07:39:19;;;;;;;0.40;0.40;;;6.50;54.10;;;;;;5115484;28;20019;-79
2023/01/30 07:41:45;;;;;;;0.40;0.40;;;6.40;54.00;;;;;;5103442;28;20032;-91
2023/01/30 07:44:11;;;;;;;0.40;0.40;;;6.10;54.80;;;;;;5116292;28;20113;-82
2023/01/30 07:46:37;;;;;;;0.40;0.40;;;6.00;55.40;;;;;;5115806;28;20115;-82
2023/01/30 07:49:04;;;;;;;0.40;0.40;;;6.20;55.30;;;;;;5080365;28;20501;-81
2023/01/30 07:51:31;;;;;;;0.40;0.40;;;6.20;54.60;;;;;;5109216;28;20442;-91
2023/01/30 07:53:56;;;;;;;0.30;0.30;;;6.30;54.60;;;;;;5085543;28;20055;-86
2023/01/30 07:56:22;;;;;;;0.40;0.40;;;6.60;54.20;;;;;;5095367;28;20055;-82
2023/01/30 07:58:49;;;;;;;0.40;0.40;;;7.00;53.40;;;;;;5083019;28;20077;-91
2023/01/30 08:01:15;;;;;;;0.30;0.30;;;7.30;52.80;;;;;;5093565;28;20028;-81
2023/01/30 08:03:42;;;;;;;0.30;0.30;;;7.70;52.10;;;;;;4726674;28;10000155;-91
2023/01/30 08:06:08;;;;;;;0.40;0.40;;;7.90;52.20;;;;;;5077637;28;20032;-90
2023/01/30 08:08:34;;;;;;;0.40;0.40;;;7.90;52.40;;;;;;5094212;28;20024;-82
2023/01/30 08:11:00;;;;;;;0.40;0.40;;;7.80;51.90;;;;;;5094016;28;20077;-84
2023/01/30 08:13:26;;;;;;;0.40;0.40;;;7.70;52.20;;;;;;5084986;28;20319;-87
2023/01/30 08:15:51;;;;;;;0.40;0.40;;;8.00;52.20;;;;;;5088041;28;20038;-88
2023/01/30 08:18:17;;;;;;;0.30;0.30;;;8.00;52.20;;;;;;5095160;28;20020;-85
2023/01/30 08:20:43;;;;;;;0.30;0.30;;;8.10;52.20;;;;;;5095012;28;20020;-87
2023/01/30 08:23:09;;;;;;;0.30;0.30;;;8.10;51.80;;;;;;5099455;28;20092;-85
2023/01/30 08:25:35;;;;;;;0.30;0.30;;;8.10;52.00;;;;;;5095962;28;20027;-87
2023/01/30 08:28:01;;;;;;;0.40;0.40;;;8.50;51.50;;;;;;5087448;28;20374;-85
2023/01/30 08:30:29;;;;;;;0.30;0.30;;;8.20;50.90;;;;;;5076708;28;20020;-86
2023/01/30 08:32:55;;;;;;;0.30;0.30;;;7.70;52.10;;;;;;5081185;28;20055;-84
2023/01/30 08:35:21;;;;;;;0.40;0.40;;;7.70;53.00;;;;;;5076884;28;20102;-84
2023/01/30 08:37:46;;;;;;;0.30;0.30;;;7.80;53.20;;;;;;5094789;28;20023;-83
2023/01/30 08:40:12;;;;;;;0.30;0.30;;;7.50;52.20;;;;;;5096962;28;20032;-84
2023/01/30 08:42:38;;;;;;;0.40;0.40;;;6.90;53.70;;;;;;5097324;28;20028;-85
2023/01/30 08:45:04;;;;;;;0.20;0.20;;;6.90;54.40;;;;;;5096251;28;20023;-84
2023/01/30 08:47:31;;;;;;;0.25;0.25;;;7.40;54.10;;;;;;5096048;28;20027;-84
2023/01/30 08:49:56;;;;;;;0.30;0.30;;;7.40;53.40;;;;;;5096246;28;20020;-84
2023/01/30 08:52:22;;;;;;;0.30;0.30;;;7.70;53.20;;;;;;5076452;28;20036;-84
2023/01/30 08:54:48;;;;;;;0.30;0.30;;;8.00;52.60;;;;;;5076068;28;20052;-84
2023/01/30 08:57:14;;;;;;;0.30;0.30;;;7.70;52.30;;;;;;5092883;28;20043;-84
2023/01/30 08:59:40;;;;;;;0.30;0.30;;;7.00;53.40;;;;;;5096072;28;20051;-86
2023/01/30 09:02:10;;;;;;;0.40;0.40;;;6.60;55.00;;;;;;5114594;28;20118;-84
2023/01/30 09:04:35;;;;;;;0.30;0.30;;;6.80;54.70;;;;;;5095950;28;20063;-84
2023/01/30 09:07:01;;;;;;;0.30;0.30;;;6.60;55.30;;;;;;5095958;28;20450;-84
2023/01/30 09:09:30;;;;;;;0.30;0.30;;;6.60;54.80;;;;;;5089840;28;20032;-83
2023/01/30 09:11:56;;;;;;;0.38;0.38;;;5.80;57.00;;;;;;5091124;28;20374;-84
2023/01/30 09:14:21;;;;;;;0.40;0.40;;;6.30;56.80;;;;;;5096267;28;20466;-88
2023/01/30 09:16:54;;;;;;;0.30;0.30;;;7.10;55.20;;;;;;5091867;28;20031;-85
2023/01/30 09:19:21;;;;;;;0.20;0.20;;;7.50;54.00;;;;;;5077326;28;20111;-85
2023/01/30 09:21:49;;;;;;;0.40;0.40;;;7.40;53.40;;;;;;5088030;28;20054;-84
2023/01/30 09:24:15;;;;;;;0.30;0.30;;;6.80;54.90;;;;;;5095854;28;20051;-83
2023/01/30 09:26:43;;;;;;;0.30;0.30;;;6.10;55.80;;;;;;5095182;28;20031;-85
2023/01/30 09:29:13;;;;;;;0.40;0.40;;;5.80;56.80;;;;;;5095102;28;20024;-86
2023/01/30 09:31:39;;;;;;;0.40;0.40;;;5.70;57.20;;;;;;5108942;28;20100;-84
2023/01/30 09:34:05;;;;;;;0.32;0.32;;;5.90;57.80;;;;;;5095459;28;20128;-85
2023/01/30 09:36:31;;;;;;;0.30;0.30;;;6.30;56.10;;;;;;5095204;28;20026;-81
2023/01/30 09:38:57;;;;;;;0.30;0.30;;;6.40;56.40;;;;;;5095107;28;21567;-83
2023/01/30 09:41:45;;;;;;;0.30;0.30;;;6.00;56.10;;;;;;5095471;28;20024;-84
2023/01/30 09:44:36;;;;;;;0.40;0.40;;;6.00;57.30;;;;;;5080563;28;20027;-89
2023/01/30 09:47:12;;;;;;;;;;;6.50;57.20;;;;;;5094607;28;20435;-89
2023/01/30 09:49:56;;;;;;;0.30;0.30;;;7.20;55.20;;;;;;5094416;28;20452;-90
2023/01/30 09:52:26;;;;;;;0.30;0.30;;;7.70;54.40;;;;;;5090231;28;20031;-86
2023/01/30 09:54:55;;;;;;;;;;;7.70;53.20;;;;;;5098256;28;20095;-84
2023/01/30 09:57:24;;;;;;;0.40;0.40;;;7.90;54.30;;;;;;5087098;28;19908;-89
2023/01/30 10:00:05;;;;;;;1.00;0.40;;;8.30;52.50;;;;;;5083211;28;20024;-86
2023/01/30 10:02:57;;;;;;;0.40;0.40;;;8.00;53.00;;;;;;5093959;28;20029;-95
2023/01/30 10:05:44;;;;;;;0.40;0.40;;;8.40;53.20;;;;;;5076013;28;20039;-87
2023/01/30 10:08:39;;;;;;;0.40;0.40;;;9.00;52.50;;;;;;5076830;28;20517;-88
2023/01/30 10:11:25;;;;;;;0.20;0.20;;;9.30;51.80;;;;;;5075674;28;20496;-88
2023/01/30 10:14:03;;;;;;;0.30;0.30;;;9.40;51.20;;;;;;4975382;28;20497;-94
2023/01/30 10:17:04;;;;;;;0.40;0.40;;;9.00;51.90;;;;;;4992273;28;20117;-88
2023/01/30 10:20:20;;;;;;;0.36;0.36;;;8.50;52.00;;;;;;4511443;29;10002814;-83
2023/01/30 10:22:54;;;;;;;0.30;0.30;;;7.90;53.90;;;;;;4916463;29;20298;-91
2023/01/30 10:25:44;;;;;;;0.30;0.30;;;8.30;54.30;;;;;;4918973;29;20036;-86
2023/01/30 10:28:18;;;;;;;0.30;0.30;;;9.00;52.70;;;;;;4922027;29;20083;-87
2023/01/30 10:30:46;;;;;;;0.40;0.40;;;9.00;52.50;;;;;;4937093;29;20047;-92
2023/01/30 10:33:23;;;;;;;0.30;0.30;;;9.20;51.80;;;;;;4922101;29;20107;-86
2023/01/30 10:36:10;;;;;;;0.30;0.30;;;9.10;51.50;;;;;;4921933;29;20052;-88
2023/01/30 10:38:51;;;;;;;0.30;0.30;;;8.40;52.60;;;;;;4921968;29;20040;-95
2023/01/30 10:41:35;;;;;;;0.28;0.28;;;7.80;54.40;;;;;;4937341;29;20558;-87
2023/01/30 10:44:14;;;;;;;0.30;0.30;;;8.00;54.40;;;;;;4920104;29;20122;-92
2023/01/30 10:47:21;;;;;;;0.30;0.30;;;7.60;54.60;;;;;;4937062;29;20031;-83
2023/01/30 10:49:53;;;;;;;0.30;0.30;;;7.20;55.40;;;;;;4899867;28;20068;-84
2023/01/30 10:52:44;;;;;;;0.30;0.30;;;7.30;55.50;;;;;;4975619;28;20066;-86
2023/01/30 10:55:28;;;;;;;0.30;0.30;;;7.90;54.70;;;;;;4976287;28;20337;-84
2023/01/30 10:58:29;;;;;;;0.40;0.40;;;8.40;54.00;;;;;;5034424;28;20033;-84
2023/01/30 11:01:07;;;;;;;0.32;0.32;;;8.80;52.90;;;;;;5033967;28;20029;-83
2023/01/30 11:04:03;;;;;;;0.30;0.30;;;9.30;52.50;;;;;;5017423;28;20044;-84
2023/01/30 11:06:31;;;;;;;0.30;0.30;;;9.70;52.00;;;;;;5001210;28;20029;-90
2023/01/30 11:08:57;;;;;;;0.30;0.30;;;9.50;51.50;;;;;;5017686;28;20124;-84
2023/01/30 11:11:49;;;;;;;0.30;0.30;;;9.50;52.00;;;;;;5017447;28;20039;-84
2023/01/30 11:14:14;;;;;;;0.30;0.30;;;9.80;51.70;;;;;;5017476;28;20026;-84
2023/01/30 11:16:52;;;;;;;0.30;0.30;;;10.20;51.80;;;;;;5033670;28;20048;-85
2023/01/30 11:19:32;;;;;;;0.30;0.30;;;10.60;51.60;;;;;;5033740;28;20021;-88
2023/01/30 11:22:03;;;;;;;0.30;0.30;;;10.80;50.40;;;;;;5017246;28;20052;-84
2023/01/30 11:24:31;;;;;;;0.30;0.30;;;10.90;50.00;;;;;;5016953;28;20017;-84
2023/01/30 11:27:23;;;;;;;0.30;0.30;;;11.10;49.90;;;;;;5068961;28;20054;-87
2023/01/30 11:29:51;;;;;;;0.30;0.30;;;10.90;48.90;;;;;;5095610;28;20020;-84
2023/01/30 11:32:27;;;;;;;0.30;0.30;;;10.50;50.40;;;;;;5077798;28;20024;-87
2023/01/30 11:35:05;;;;;;;0.30;0.30;;;10.70;50.40;;;;;;5095552;28;20017;-84
2023/01/30 11:37:36;;;;;;;0.30;0.30;;;11.00;50.00;;;;;;5077738;28;20107;-85
2023/01/30 11:40:19;;;;;;;0.32;0.32;;;11.20;49.80;;;;;;5077619;28;20054;-84
2023/01/30 11:42:48;;;;;;;0.30;0.30;;;11.30;49.70;;;;;;5077450;28;20039;-89
2023/01/30 11:45:19;;;;;;;0.30;0.30;;;11.30;49.30;;;;;;5077577;28;20032;-87
2023/01/30 11:48:02;;;;;;;0.30;0.30;;;11.00;50.00;;;;;;5077305;28;20081;-87
2023/01/30 11:50:40;;;;;;;0.30;0.30;;;11.00;49.80;;;;;;5077334;28;20025;-84
2023/01/30 11:53:26;;;;;;;0.30;0.30;;;11.00;50.30;;;;;;5077443;28;20024;-86
2023/01/30 11:55:56;;;;;;;0.30;0.30;;;10.90;50.20;;;;;;5077234;28;20114;-84
2023/01/30 11:58:22;;;;;;;0.30;0.30;;;10.80;50.60;;;;;;5077230;28;20028;-84
2023/01/30 12:00:48;;;;;;;0.30;0.30;;;10.70;50.50;;;;;;5077272;28;20038;-88
2023/01/30 12:03:22;;;;;;;0.40;0.40;;;10.60;50.80;;;;;;5076844;28;20028;-85
2023/01/30 12:05:47;;;;;;;0.25;0.25;;;10.20;51.10;;;;;;5076786;28;20486;-84
2023/01/30 12:08:19;;;;;;;0.38;0.38;;;10.00;51.50;;;;;;5077017;28;20034;-84
2023/01/30 12:10:53;;;;;;;0.25;0.25;;;10.20;51.80;;;;;;5094802;28;20060;-85
2023/01/30 12:13:40;;;;;;;0.30;0.30;;;10.50;51.30;;;;;;5076932;28;20066;-84
2023/01/30 12:16:25;;;;;;;0.30;0.30;;;10.60;51.30;;;;;;5076625;28;20085;-86
2023/01/30 12:19:12;;;;;;;0.28;0.28;;;10.30;51.60;;;;;;5076942;28;20024;-85
2023/01/30 12:21:56;;;;;;;0.30;0.30;;;10.10;52.40;;;;;;5076581;28;20510;-84
2023/01/30 12:24:33;;;;;;;0.30;0.30;;;10.20;52.30;;;;;;5076316;28;20034;-87
2023/01/30 12:27:18;;;;;;;0.30;0.30;;;9.80;53.10;;;;;;5076768;28;20040;-86
2023/01/30 12:30:16;;;;;;;0.30;0.30;;;9.80;53.00;;;;;;5076726;28;20028;-86
2023/01/30 12:32:43;;;;;;;0.30;0.30;;;10.20;52.40;;;;;;5076920;28;20028;-86
2023/01/30 12:35:23;;;;;;;0.30;0.30;;;9.90;52.40;;;;;;5076281;28;20543;-85
2023/01/30 12:38:07;;;;;;;0.30;0.30;;;9.50;52.50;;;;;;5075979;28;20111;-85
2023/01/30 12:40:39;;;;;;;0.30;0.30;;;9.40;52.90;;;;;;5076317;28;20482;-84
2023/01/30 12:43:17;;;;;;;0.30;0.30;;;9.70;52.90;;;;;;5076104;28;20036;-84
2023/01/30 12:46:06;;;;;;;0.30;0.30;;;9.70;52.00;;;;;;5076309;28;20036;-85
2023/01/30 12:48:56;;;;;;;0.30;0.30;;;8.90;53.20;;;;;;5076097;28;20028;-85
2023/01/30 12:51:42;;;;;;;0.30;0.30;;;8.80;54.20;;;;;;5076479;28;20413;-82
2023/01/30 12:54:30;;;;;;;0.30;0.30;;;8.40;54.50;;;;;;5076244;28;20136;-86
2023/01/30 12:57:17;;;;;;;0.20;0.20;;;8.30;54.80;;;;;;5076094;28;20031;-86
2023/01/30 13:00:02;;;;;;;0.30;0.30;;;8.20;55.00;;;;;;5076186;28;20030;-87
2023/01/30 13:03:09;;;;;;;0.30;0.30;;;8.30;55.30;;;;;;5076260;28;20036;-86
2023/01/30 13:05:52;;;;;;;0.32;0.32;;;8.70;54.90;;;;;;5012018;28;20026;-87
2023/01/30 13:08:41;;;;;;;0.30;0.30;;;9.00;54.50;;;;;;5012226;28;20049;-87
2023/01/30 13:11:27;;;;;;;0.30;0.30;;;9.50;53.90;;;;;;4957270;28;20417;-86
2023/01/30 13:14:08;;;;;;;0.28;0.28;;;9.90;53.10;;;;;;4957056;28;20106;-84
2023/01/30 13:17:11;;;;;;;0.30;0.30;;;10.10;52.10;;;;;;4973228;28;20049;-88
2023/01/30 13:19:48;;;;;;;0.30;0.30;;;10.00;51.90;;;;;;4956888;28;20374;-86
2023/01/30 13:22:34;;;;;;;0.20;0.20;;;9.90;51.60;;;;;;4956490;28;20114;-86
2023/01/30 13:25:03;;;;;;;0.30;0.30;;;9.60;52.90;;;;;;4956838;28;20393;-86
2023/01/30 13:27:35;;;;;;;0.30;0.30;;;9.90;52.50;;;;;;4956865;28;20046;-85
2023/01/30 13:30:03;;;;;;;0.30;0.30;;;10.00;52.00;;;;;;4956948;28;20138;-84